Time;durP1;ratioP1;P1;durP2;ratioP2;P2;SDS_P1;SDS_P2;PMS_P1;PMS_P2;Temp;Humidity;BMP_temperature;BMP_pressure;BME280_temperature;BME280_humidity;BME280_pressure;Samples;Min_cycle;Max_cycle;Signal;HPM_P1;HPM_P2
2022/05/30 00:00:17;;;;;;;5.13;0.85;;;19.40;57.00;;;;;;4480741;32;20254;-63
2022/05/30 00:02:43;;;;;;;1.55;0.55;;;19.40;57.00;;;;;;4482152;31;20242;-63
2022/05/30 00:05:11;;;;;;;3.78;0.70;;;19.40;57.00;;;;;;4480867;32;20270;-63
2022/05/30 00:07:37;;;;;;;1.52;0.60;;;19.40;57.10;;;;;;4481438;31;20140;-63
2022/05/30 00:10:05;;;;;;;1.95;0.60;;;19.40;57.00;;;;;;4481371;31;20255;-62
2022/05/30 00:12:31;;;;;;;2.25;0.70;;;19.40;57.10;;;;;;4481250;32;20129;-63
2022/05/30 00:14:57;;;;;;;1.55;0.60;;;19.40;57.10;;;;;;4481912;32;20136;-63
2022/05/30 00:17:22;;;;;;;1.20;0.40;;;19.40;57.10;;;;;;4480845;31;20143;-63
2022/05/30 00:19:48;;;;;;;1.85;0.55;;;19.40;57.10;;;;;;4481794;32;20109;-63
2022/05/30 00:22:15;;;;;;;1.40;0.40;;;19.40;57.10;;;;;;4480770;32;20113;-62
2022/05/30 00:24:43;;;;;;;2.10;0.90;;;19.40;57.10;;;;;;4480077;32;20140;-63
2022/05/30 00:27:11;;;;;;;2.30;0.82;;;19.40;57.10;;;;;;4476737;31;20129;-63
2022/05/30 00:29:38;;;;;;;1.50;0.50;;;19.40;57.10;;;;;;4474400;32;20151;-63
2022/05/30 00:32:06;;;;;;;1.85;0.60;;;19.40;57.10;;;;;;4480423;32;20121;-63
2022/05/30 00:34:33;;;;;;;1.48;0.57;;;19.40;57.10;;;;;;4480549;32;20125;-63
2022/05/30 00:37:00;;;;;;;1.35;0.63;;;19.40;57.10;;;;;;4481652;31;20143;-63
2022/05/30 00:39:26;;;;;;;2.10;0.60;;;19.40;57.10;;;;;;4477068;32;20184;-62
2022/05/30 00:41:52;;;;;;;2.67;0.55;;;19.40;57.10;;;;;;4476830;32;20640;-62
2022/05/30 00:44:18;;;;;;;0.73;0.25;;;19.40;57.10;;;;;;4480812;32;20139;-62
2022/05/30 00:46:44;;;;;;;1.58;0.77;;;19.40;57.10;;;;;;4480681;32;20128;-63
2022/05/30 00:49:12;;;;;;;1.67;0.57;;;19.30;57.00;;;;;;4481192;32;20144;-63
2022/05/30 00:51:42;;;;;;;0.82;0.40;;;19.30;57.10;;;;;;4480403;32;20137;-63
2022/05/30 00:54:11;;;;;;;1.83;0.40;;;19.30;57.10;;;;;;4481507;31;20141;-62
2022/05/30 00:56:41;;;;;;;2.45;0.60;;;19.30;57.00;;;;;;4464287;32;20137;-62
2022/05/30 00:59:08;;;;;;;1.67;0.60;;;19.30;57.00;;;;;;4467960;32;20737;-62
2022/05/30 01:01:35;;;;;;;1.50;0.50;;;19.30;57.10;;;;;;4474992;32;20148;-62
2022/05/30 01:06:51;;;;;;;1.20;0.40;;;19.30;57.10;;;;;;4471026;32;20137;-62
2022/05/30 01:09:32;;;;;;;0.75;0.30;;;19.30;57.10;;;;;;4479185;32;20158;-63
2022/05/30 01:12:04;;;;;;;1.27;0.57;;;19.30;57.10;;;;;;4475541;32;20133;-62
2022/05/30 01:14:41;;;;;;;2.20;0.57;;;19.30;57.10;;;;;;4474488;32;20132;-63
2022/05/30 01:17:13;;;;;;;1.58;0.57;;;19.30;57.10;;;;;;4480180;31;20203;-62
2022/05/30 01:20:17;;;;;;;1.85;0.40;;;19.30;57.10;;;;;;4481609;31;20128;-62
2022/05/30 01:22:42;;;;;;;1.13;0.50;;;19.30;57.00;;;;;;4456582;31;20605;-62
2022/05/30 01:25:36;;;;;;;1.92;0.50;;;19.30;57.10;;;;;;4480288;32;20133;-63
2022/05/30 01:28:05;;;;;;;;;;;19.20;57.10;;;;;;4481777;32;20144;-62
2022/05/30 01:30:35;;;;;;;1.65;0.47;;;19.20;57.00;;;;;;4468544;32;20033;-63
2022/05/30 01:33:01;;;;;;;1.20;0.30;;;19.20;57.10;;;;;;4480935;32;20125;-62
2022/05/30 01:35:28;;;;;;;1.35;0.40;;;19.20;57.10;;;;;;4480140;32;20124;-62
2022/05/30 01:37:56;;;;;;;1.05;0.35;;;19.20;57.10;;;;;;4480422;32;20136;-63
2022/05/30 01:40:24;;;;;;;1.60;0.40;;;19.20;57.10;;;;;;4480612;32;20478;-62
2022/05/30 01:42:49;;;;;;;1.67;0.43;;;19.20;57.10;;;;;;4479803;32;20129;-62
2022/05/30 01:45:16;;;;;;;2.22;0.52;;;19.20;57.10;;;;;;4480864;32;20217;-62
2022/05/30 01:47:42;;;;;;;1.35;0.50;;;19.20;57.10;;;;;;4479794;32;20598;-63
2022/05/30 01:50:08;;;;;;;0.93;0.35;;;19.20;57.10;;;;;;4480734;32;20132;-63
2022/05/30 01:52:34;;;;;;;0.88;0.40;;;19.20;57.20;;;;;;4479945;32;20125;-62
2022/05/30 01:54:59;;;;;;;1.88;0.45;;;19.20;57.10;;;;;;4480462;32;20135;-63
2022/05/30 01:57:25;;;;;;;1.23;0.30;;;19.20;58.10;;;;;;4480280;32;20125;-62
2022/05/30 01:59:51;;;;;;;1.10;0.45;;;19.20;57.20;;;;;;4481406;32;20109;-62
2022/05/30 02:02:17;;;;;;;1.08;0.40;;;19.10;57.10;;;;;;4495992;31;20136;-62
2022/05/30 02:04:43;;;;;;;1.45;0.50;;;19.20;57.20;;;;;;4471528;32;20124;-62
2022/05/30 02:07:09;;;;;;;1.25;0.43;;;19.20;57.20;;;;;;4483922;31;20169;-62
2022/05/30 02:09:36;;;;;;;1.70;0.55;;;19.20;57.10;;;;;;4482814;32;20310;-62
2022/05/30 02:12:02;;;;;;;2.35;0.30;;;19.20;57.20;;;;;;4483289;32;20136;-62
2022/05/30 02:14:28;;;;;;;1.15;0.40;;;19.10;57.20;;;;;;4482227;32;20143;-63
2022/05/30 02:17:00;;;;;;;1.67;0.40;;;19.10;57.20;;;;;;4482869;32;20128;-63
2022/05/30 02:19:36;;;;;;;1.10;0.30;;;19.10;57.20;;;;;;4483868;31;20139;-62
2022/05/30 02:22:02;;;;;;;1.20;0.40;;;19.10;57.20;;;;;;4482633;32;20148;-63
2022/05/30 02:24:28;;;;;;;0.50;0.30;;;19.10;57.20;;;;;;4483398;31;20608;-62
2022/05/30 02:26:57;;;;;;;1.70;0.35;;;19.10;57.20;;;;;;4482801;31;20117;-62
2022/05/30 02:29:23;;;;;;;1.48;0.60;;;19.20;57.20;;;;;;4482840;32;20136;-63
2022/05/30 02:31:50;;;;;;;1.20;0.40;;;19.10;57.20;;;;;;4483135;31;20184;-62
2022/05/30 02:37:01;;;;;;;1.27;0.40;;;19.10;57.20;;;;;;4483456;31;20137;-62
2022/05/30 02:39:28;;;;;;;0.75;0.32;;;19.10;57.20;;;;;;4482592;32;20505;-63
2022/05/30 02:41:54;;;;;;;1.98;0.63;;;19.10;57.20;;;;;;4482846;31;20148;-63
2022/05/30 02:44:22;;;;;;;1.40;0.28;;;19.10;57.20;;;;;;4482496;32;20479;-62
2022/05/30 02:46:50;;;;;;;1.10;0.40;;;19.10;57.20;;;;;;4482570;31;20168;-63
2022/05/30 02:49:17;;;;;;;0.82;0.30;;;19.10;57.20;;;;;;4483368;31;20128;-62
2022/05/30 02:51:44;;;;;;;1.05;0.32;;;19.10;57.20;;;;;;4480799;32;20294;-62
2022/05/30 02:54:11;;;;;;;0.95;0.22;;;19.10;57.20;;;;;;4483222;31;20132;-63
2022/05/30 02:56:38;;;;;;;0.85;0.30;;;19.10;57.20;;;;;;4482202;32;20139;-63
2022/05/30 02:59:04;;;;;;;1.13;0.25;;;19.10;57.20;;;;;;4482250;31;20137;-62
2022/05/30 03:01:32;;;;;;;0.80;0.30;;;19.00;57.20;;;;;;4482559;31;20137;-62
2022/05/30 03:04:02;;;;;;;0.80;0.40;;;19.10;57.20;;;;;;4471129;31;20219;-62
2022/05/30 03:06:29;;;;;;;0.80;0.40;;;19.10;57.20;;;;;;4482954;32;20136;-62
2022/05/30 03:08:56;;;;;;;1.70;0.38;;;19.00;57.20;;;;;;4481805;31;20152;-63
2022/05/30 03:11:24;;;;;;;0.77;0.30;;;19.00;57.20;;;;;;4482567;31;20135;-63
2022/05/30 03:13:54;;;;;;;0.80;0.35;;;19.00;57.20;;;;;;4482251;32;20486;-62
2022/05/30 03:16:20;;;;;;;1.30;0.40;;;19.00;57.20;;;;;;4482235;31;21214;-63
2022/05/30 03:18:46;;;;;;;1.02;0.30;;;19.00;57.30;;;;;;4482383;32;20129;-62
2022/05/30 03:21:12;;;;;;;0.93;0.30;;;19.00;57.20;;;;;;4481528;32;20142;-62
2022/05/30 03:23:38;;;;;;;0.52;0.20;;;19.00;58.20;;;;;;4483001;32;20129;-62
2022/05/30 03:26:05;;;;;;;0.80;0.22;;;19.00;57.70;;;;;;4481318;32;20143;-63
2022/05/30 03:28:32;;;;;;;0.52;0.28;;;19.00;57.20;;;;;;4482242;32;20140;-63
2022/05/30 03:30:59;;;;;;;0.88;0.45;;;19.00;57.20;;;;;;4481788;32;20148;-62
2022/05/30 03:33:28;;;;;;;0.90;0.30;;;19.00;57.20;;;;;;4482000;31;20160;-62
2022/05/30 03:35:54;;;;;;;0.85;0.17;;;19.00;57.20;;;;;;4482132;31;20814;-62
2022/05/30 03:38:20;;;;;;;0.88;0.22;;;19.00;57.20;;;;;;4481506;31;20137;-63
2022/05/30 03:40:45;;;;;;;0.93;0.20;;;19.00;57.20;;;;;;4479799;32;20117;-62
2022/05/30 03:43:13;;;;;;;0.55;0.25;;;18.90;57.20;;;;;;4472965;32;20199;-63
2022/05/30 03:45:41;;;;;;;1.08;0.30;;;18.90;57.20;;;;;;4480317;31;20567;-62
2022/05/30 03:48:09;;;;;;;0.70;0.35;;;18.90;57.20;;;;;;4479809;32;20224;-63
2022/05/30 03:50:38;;;;;;;1.45;0.40;;;19.00;57.20;;;;;;4481802;31;20129;-63
2022/05/30 03:53:07;;;;;;;0.52;0.20;;;19.00;57.20;;;;;;4493913;31;20164;-62
2022/05/30 03:55:42;;;;;;;1.23;0.38;;;18.90;57.20;;;;;;4471718;31;20125;-62
2022/05/30 03:58:10;;;;;;;0.60;0.30;;;18.90;57.20;;;;;;4481884;32;20128;-62
2022/05/30 04:00:38;;;;;;;1.48;0.30;;;18.90;57.20;;;;;;4481141;31;20513;-62
2022/05/30 04:03:05;;;;;;;1.52;0.38;;;18.90;57.20;;;;;;4478585;31;20277;-63
2022/05/30 04:05:31;;;;;;;1.55;0.32;;;18.90;57.20;;;;;;4472783;32;20210;-62
2022/05/30 04:07:57;;;;;;;1.52;0.40;;;18.90;57.20;;;;;;4481393;32;20129;-62
2022/05/30 04:10:23;;;;;;;0.90;0.20;;;18.90;57.20;;;;;;4481679;32;20129;-63
2022/05/30 04:12:50;;;;;;;1.10;0.22;;;18.90;57.20;;;;;;4480704;31;20202;-63
2022/05/30 04:15:19;;;;;;;0.80;0.30;;;18.90;57.20;;;;;;4482132;32;20231;-62
2022/05/30 04:17:45;;;;;;;0.43;0.25;;;18.90;57.20;;;;;;4480980;31;20121;-62
2022/05/30 04:20:11;;;;;;;0.90;0.20;;;18.90;57.20;;;;;;4478027;32;20139;-62
2022/05/30 04:22:37;;;;;;;0.77;0.30;;;18.90;57.20;;;;;;4471748;32;20291;-62
2022/05/30 04:25:03;;;;;;;0.55;0.30;;;18.90;57.20;;;;;;4481191;32;20127;-62
2022/05/30 04:27:32;;;;;;;0.77;0.22;;;18.90;57.20;;;;;;4481743;31;20644;-62
2022/05/30 04:29:58;;;;;;;1.10;0.40;;;18.90;57.30;;;;;;4480334;32;20144;-62
2022/05/30 04:32:24;;;;;;;1.48;0.40;;;18.90;57.20;;;;;;4481844;31;20140;-62
2022/05/30 04:34:51;;;;;;;0.85;0.20;;;18.90;57.20;;;;;;4480597;31;20271;-63
2022/05/30 04:37:16;;;;;;;1.70;0.40;;;18.90;57.20;;;;;;4481407;32;20121;-62
2022/05/30 04:39:42;;;;;;;1.13;0.30;;;18.80;57.10;;;;;;4480832;32;20120;-63
2022/05/30 04:42:08;;;;;;;0.75;0.30;;;18.90;57.30;;;;;;4480417;31;20148;-62
2022/05/30 04:44:35;;;;;;;0.85;0.25;;;18.80;57.20;;;;;;4480789;31;20133;-62
2022/05/30 04:47:01;;;;;;;0.70;0.20;;;18.90;57.20;;;;;;4480189;31;20144;-62
2022/05/30 04:49:27;;;;;;;1.02;0.40;;;18.90;57.30;;;;;;4481284;31;20176;-62
2022/05/30 04:51:54;;;;;;;0.80;0.20;;;18.80;57.20;;;;;;4479927;31;20147;-62
2022/05/30 04:54:21;;;;;;;1.52;0.63;;;18.80;57.20;;;;;;4478965;31;20129;-62
2022/05/30 04:56:47;;;;;;;0.20;0.10;;;18.80;57.20;;;;;;4480296;31;20610;-63
2022/05/30 04:59:13;;;;;;;0.45;0.30;;;18.80;57.20;;;;;;4480223;31;20152;-62
2022/05/30 05:01:39;;;;;;;0.85;0.40;;;18.80;57.20;;;;;;4480808;31;20740;-62
2022/05/30 05:04:08;;;;;;;0.50;0.20;;;18.80;57.20;;;;;;4479670;31;20125;-62
2022/05/30 05:06:34;;;;;;;0.60;0.20;;;18.80;57.20;;;;;;4481164;31;20190;-62
2022/05/30 05:09:18;;;;;;;0.30;0.20;;;18.80;57.20;;;;;;4479761;31;20140;-62
2022/05/30 05:11:46;;;;;;;0.95;0.20;;;18.80;57.20;;;;;;4479674;31;20125;-62
2022/05/30 05:14:13;;;;;;;0.90;0.28;;;18.80;57.20;;;;;;4480396;31;20132;-62
2022/05/30 05:16:39;;;;;;;0.95;0.13;;;18.80;57.20;;;;;;4475771;32;20175;-63
2022/05/30 05:19:06;;;;;;;0.60;0.40;;;18.80;57.20;;;;;;4481030;32;20474;-62
2022/05/30 05:21:42;;;;;;;0.80;0.10;;;18.80;57.30;;;;;;4479654;32;20207;-62
2022/05/30 05:24:12;;;;;;;0.40;0.22;;;18.80;57.30;;;;;;4481004;31;20583;-62
2022/05/30 05:26:46;;;;;;;0.30;0.20;;;18.80;57.30;;;;;;4480248;32;20263;-62
2022/05/30 05:29:12;;;;;;;0.80;0.20;;;18.80;57.20;;;;;;4480233;32;20598;-63
2022/05/30 05:31:38;;;;;;;1.08;0.30;;;18.80;57.30;;;;;;4480337;32;20129;-62
2022/05/30 05:34:08;;;;;;;0.40;0.10;;;18.80;57.30;;;;;;4480423;31;20129;-62
2022/05/30 05:36:41;;;;;;;0.75;0.22;;;18.80;58.20;;;;;;4484107;31;20273;-62
2022/05/30 05:39:08;;;;;;;0.55;0.10;;;18.80;57.30;;;;;;4482952;31;20144;-62
2022/05/30 05:41:34;;;;;;;0.50;0.20;;;18.80;57.30;;;;;;4483684;31;20144;-62
2022/05/30 05:44:00;;;;;;;0.63;0.28;;;18.80;57.30;;;;;;4483447;32;20151;-63
2022/05/30 05:46:31;;;;;;;0.52;0.32;;;18.80;57.30;;;;;;4483058;32;20124;-63
2022/05/30 05:48:58;;;;;;;0.55;0.25;;;18.80;57.30;;;;;;4483880;32;20141;-63
2022/05/30 05:51:24;;;;;;;0.25;0.15;;;18.80;57.30;;;;;;4482573;31;20203;-63
2022/05/30 05:53:50;;;;;;;0.30;0.10;;;18.80;57.40;;;;;;4483659;31;20145;-63
2022/05/30 05:56:25;;;;;;;0.47;0.20;;;18.80;57.40;;;;;;4472337;32;20584;-63
2022/05/30 05:58:52;;;;;;;0.47;0.20;;;18.80;57.40;;;;;;4483472;31;20143;-63
2022/05/30 06:01:27;;;;;;;1.88;0.40;;;18.70;57.30;;;;;;4483287;31;20151;-63
2022/05/30 06:03:56;;;;;;;0.47;0.25;;;18.70;57.40;;;;;;4483123;31;20113;-63
2022/05/30 06:06:23;;;;;;;0.57;0.20;;;18.80;57.50;;;;;;4483762;31;20159;-63
2022/05/30 06:08:50;;;;;;;0.88;0.30;;;18.70;57.40;;;;;;4482665;31;20135;-63
2022/05/30 06:11:16;;;;;;;0.45;0.17;;;18.70;57.40;;;;;;4483704;31;20139;-62
2022/05/30 06:13:44;;;;;;;0.60;0.32;;;18.70;57.40;;;;;;4482810;31;20159;-63
2022/05/30 06:16:15;;;;;;;0.40;0.15;;;18.80;57.50;;;;;;4483191;31;20151;-63
2022/05/30 06:18:41;;;;;;;0.65;0.10;;;18.70;57.40;;;;;;4483328;31;20133;-63
2022/05/30 06:21:07;;;;;;;0.60;0.20;;;18.70;57.40;;;;;;4482727;31;20184;-63
2022/05/30 06:23:33;;;;;;;0.38;0.20;;;18.70;57.40;;;;;;4483814;31;20279;-63
2022/05/30 06:26:04;;;;;;;0.65;0.20;;;18.70;57.50;;;;;;4482121;32;20121;-63
2022/05/30 06:28:31;;;;;;;0.80;0.20;;;18.70;57.50;;;;;;4483190;31;20583;-63
2022/05/30 06:30:57;;;;;;;0.63;0.28;;;18.70;57.50;;;;;;4482818;31;20568;-63
2022/05/30 06:33:23;;;;;;;0.80;0.30;;;18.70;57.50;;;;;;4482823;32;20594;-63
2022/05/30 06:35:49;;;;;;;0.38;0.20;;;18.70;57.50;;;;;;4483168;31;20178;-62
2022/05/30 06:38:16;;;;;;;0.40;0.20;;;18.70;57.50;;;;;;4482386;31;20125;-62
2022/05/30 06:40:43;;;;;;;2.50;0.20;;;18.70;57.50;;;;;;4483552;31;20140;-62
2022/05/30 06:43:09;;;;;;;2.47;0.35;;;18.80;57.50;;;;;;4481865;31;20136;-63
2022/05/30 06:45:35;;;;;;;1.90;0.20;;;18.70;57.30;;;;;;4482790;31;20542;-63
2022/05/30 06:48:01;;;;;;;3.40;0.30;;;18.70;57.20;;;;;;4482533;31;20113;-63
2022/05/30 06:50:28;;;;;;;0.75;0.25;;;18.80;57.20;;;;;;4482730;32;20121;-62
2022/05/30 06:52:54;;;;;;;3.35;0.30;;;18.80;57.20;;;;;;4482925;31;20211;-63
2022/05/30 06:55:20;;;;;;;3.08;0.60;;;18.80;57.20;;;;;;4472200;32;20130;-62
2022/05/30 07:00:31;;;;;;;5.32;0.50;;;18.90;57.40;;;;;;4482047;31;20125;-62
2022/05/30 07:02:59;;;;;;;4.05;0.68;;;18.90;57.30;;;;;;4482862;31;20133;-62
2022/05/30 07:05:25;;;;;;;3.40;0.38;;;18.90;57.40;;;;;;4482239;31;20528;-62
2022/05/30 07:07:55;;;;;;;1.15;0.30;;;18.90;57.30;;;;;;4482111;31;20125;-62
2022/05/30 07:10:24;;;;;;;1.55;0.40;;;18.90;57.30;;;;;;4482861;31;20489;-62
2022/05/30 07:12:49;;;;;;;2.55;0.35;;;18.90;57.30;;;;;;4481534;31;20120;-62
2022/05/30 07:15:15;;;;;;;2.00;0.50;;;19.00;57.30;;;;;;4483012;32;20550;-62
2022/05/30 07:17:41;;;;;;;3.38;0.38;;;19.00;57.10;;;;;;4481682;32;20142;-62
2022/05/30 07:20:08;;;;;;;2.17;0.50;;;19.00;57.10;;;;;;4482317;31;20125;-62
2022/05/30 07:22:34;;;;;;;1.70;0.40;;;19.10;57.10;;;;;;4482135;32;20202;-62
2022/05/30 07:24:59;;;;;;;0.70;0.28;;;19.10;57.00;;;;;;4481699;32;20145;-63
2022/05/30 07:27:26;;;;;;;2.45;0.30;;;19.10;56.90;;;;;;4494398;31;20129;-62
2022/05/30 07:29:52;;;;;;;1.10;0.20;;;19.10;56.90;;;;;;4481169;31;20157;-61
2022/05/30 07:32:17;;;;;;;1.70;0.28;;;19.10;56.90;;;;;;4482744;32;20139;-61
2022/05/30 07:34:43;;;;;;;0.95;0.30;;;19.10;56.90;;;;;;4481305;32;20267;-61
2022/05/30 07:37:09;;;;;;;1.48;0.40;;;19.10;56.90;;;;;;4482189;32;20124;-61
2022/05/30 07:39:39;;;;;;;2.47;0.50;;;19.10;56.90;;;;;;4481725;32;20132;-61
2022/05/30 07:42:06;;;;;;;2.92;0.60;;;19.10;56.90;;;;;;4481586;32;20140;-62
2022/05/30 07:44:32;;;;;;;3.03;0.50;;;19.10;56.90;;;;;;4482126;31;20475;-61
2022/05/30 07:46:59;;;;;;;2.53;0.50;;;19.10;56.80;;;;;;4480841;31;20125;-61
2022/05/30 07:49:25;;;;;;;3.15;0.40;;;19.10;57.00;;;;;;4482050;31;20249;-61
2022/05/30 07:51:51;;;;;;;3.55;0.50;;;19.10;57.10;;;;;;4480861;31;20133;-61
2022/05/30 07:54:18;;;;;;;5.07;0.40;;;19.00;57.10;;;;;;4478802;32;20132;-62
2022/05/30 07:56:45;;;;;;;1.95;0.50;;;19.00;57.20;;;;;;4473094;32;20282;-61
2022/05/30 07:59:14;;;;;;;2.38;0.45;;;19.00;57.20;;;;;;4480845;31;20161;-60
2022/05/30 08:01:39;;;;;;;3.22;0.30;;;19.00;57.20;;;;;;4479746;31;20501;-61
2022/05/30 08:04:07;;;;;;;1.98;0.50;;;19.00;57.20;;;;;;4480560;32;20129;-62
2022/05/30 08:06:32;;;;;;;2.15;0.60;;;19.00;57.30;;;;;;4482247;31;20129;-61
2022/05/30 08:08:58;;;;;;;4.57;0.50;;;19.00;57.30;;;;;;4480346;31;20509;-61
2022/05/30 08:11:24;;;;;;;3.33;0.30;;;19.00;57.40;;;;;;4480984;31;20117;-62
2022/05/30 08:13:50;;;;;;;3.03;0.47;;;19.00;57.40;;;;;;4481138;32;20143;-61
2022/05/30 08:16:22;;;;;;;12.63;0.82;;;19.00;57.30;;;;;;4481171;32;20145;-60
2022/05/30 08:18:47;;;;;;;1.27;0.40;;;19.00;57.50;;;;;;4481727;31;20113;-61
2022/05/30 08:21:15;;;;;;;3.50;0.50;;;18.90;57.30;;;;;;4480613;32;20521;-60
2022/05/30 08:23:41;;;;;;;4.07;0.50;;;18.90;57.40;;;;;;4482005;31;20191;-61
2022/05/30 08:26:07;;;;;;;0.77;0.30;;;19.00;57.50;;;;;;4480443;32;20279;-61
2022/05/30 08:28:34;;;;;;;1.75;0.32;;;19.00;57.50;;;;;;4481319;32;20663;-61
2022/05/30 08:31:00;;;;;;;2.67;0.40;;;19.00;57.60;;;;;;4480837;32;20147;-61
2022/05/30 08:33:27;;;;;;;2.20;0.40;;;19.00;57.50;;;;;;4480782;31;20125;-60
2022/05/30 08:36:11;;;;;;;2.25;0.40;;;19.10;57.60;;;;;;4480804;31;20165;-60
2022/05/30 08:38:39;;;;;;;1.63;0.40;;;19.10;57.60;;;;;;4479975;32;20097;-61
2022/05/30 08:43:58;;;;;;;1.75;0.47;;;19.10;57.80;;;;;;4479983;31;20157;-60
2022/05/30 08:46:24;;;;;;;2.60;0.45;;;19.10;57.80;;;;;;4480477;31;20156;-60
2022/05/30 08:49:22;;;;;;;1.85;0.40;;;19.10;57.80;;;;;;4480853;31;20129;-60
2022/05/30 08:52:06;;;;;;;3.53;0.40;;;19.10;57.80;;;;;;4479912;31;20146;-60
2022/05/30 08:55:06;;;;;;;1.50;0.22;;;19.10;57.80;;;;;;4478698;31;20190;-60
2022/05/30 08:57:59;;;;;;;9.90;0.63;;;19.20;57.70;;;;;;4480854;31;20262;-60
2022/05/30 09:00:36;;;;;;;2.15;0.40;;;19.20;57.60;;;;;;4487398;31;20585;-60
2022/05/30 09:03:21;;;;;;;3.80;0.57;;;19.20;57.50;;;;;;4480566;32;20149;-60
2022/05/30 09:06:01;;;;;;;0.82;0.20;;;19.20;57.30;;;;;;4480706;31;20285;-60
2022/05/30 09:08:41;;;;;;;4.85;0.45;;;19.30;57.20;;;;;;4480148;32;20578;-60
2022/05/30 09:11:15;;;;;;;1.75;0.40;;;19.30;57.00;;;;;;4481277;32;20128;-60
2022/05/30 09:13:43;;;;;;;;;;;19.30;57.00;;;;;;4481040;32;20143;-60
2022/05/30 09:16:09;;;;;;;3.05;0.20;;;19.30;57.10;;;;;;4480379;31;20021;-61
2022/05/30 09:18:47;;;;;;;1.80;0.40;;;19.30;57.00;;;;;;4480530;31;20124;-60
2022/05/30 09:21:18;;;;;;;1.15;0.25;;;19.30;57.00;;;;;;4479797;31;20144;-61
2022/05/30 09:23:44;;;;;;;1.95;0.40;;;19.30;57.00;;;;;;4480983;31;20132;-60
2022/05/30 09:26:17;;;;;;;1.55;0.38;;;19.30;56.90;;;;;;4479581;31;20117;-60
2022/05/30 09:28:45;;;;;;;1.13;0.30;;;19.30;57.00;;;;;;4479959;31;20190;-61
2022/05/30 09:31:30;;;;;;;1.65;0.50;;;19.30;56.90;;;;;;4479752;31;20241;-61
2022/05/30 09:34:19;;;;;;;2.85;0.60;;;19.30;56.70;;;;;;4479832;32;20141;-61
2022/05/30 09:36:49;;;;;;;2.38;0.57;;;19.20;56.80;;;;;;4480677;32;20275;-60
2022/05/30 09:39:17;;;;;;;0.65;0.40;;;19.20;56.80;;;;;;4479835;32;20125;-61
2022/05/30 09:41:44;;;;;;;0.82;0.22;;;19.20;56.70;;;;;;4480353;32;20586;-61
2022/05/30 09:44:19;;;;;;;1.75;0.52;;;19.20;56.70;;;;;;4480292;32;20116;-61
2022/05/30 09:47:00;;;;;;;2.25;0.52;;;19.20;56.40;;;;;;4479478;32;20271;-60
2022/05/30 09:49:48;;;;;;;1.10;0.40;;;19.20;56.40;;;;;;4480868;32;20117;-60
2022/05/30 09:52:29;;;;;;;3.63;0.77;;;19.20;56.50;;;;;;4479800;32;20137;-60
2022/05/30 09:54:55;;;;;;;1.60;0.30;;;19.20;56.50;;;;;;4478436;32;20141;-60
2022/05/30 09:57:40;;;;;;;1.92;0.57;;;19.10;56.60;;;;;;4480301;32;20143;-60
2022/05/30 10:00:09;;;;;;;3.80;0.47;;;19.10;56.70;;;;;;4479119;32;20137;-61
2022/05/30 10:02:38;;;;;;;1.30;0.50;;;19.10;56.90;;;;;;4480290;32;20208;-60
2022/05/30 10:05:21;;;;;;;1.35;0.30;;;19.10;57.00;;;;;;4479526;32;20164;-60
2022/05/30 10:07:56;;;;;;;4.00;0.33;;;19.20;57.10;;;;;;4479866;32;20129;-60
2022/05/30 10:10:31;;;;;;;1.52;0.60;;;19.20;57.10;;;;;;4480076;32;20148;-60
2022/05/30 10:13:06;;;;;;;2.50;0.40;;;19.30;56.90;;;;;;4478951;32;20136;-60
2022/05/30 10:15:42;;;;;;;2.60;0.40;;;19.40;56.80;;;;;;4480067;32;20133;-60
2022/05/30 10:18:13;;;;;;;1.15;0.47;;;19.50;56.70;;;;;;4477649;31;20214;-60
2022/05/30 10:21:08;;;;;;;8.30;0.30;;;19.60;56.50;;;;;;4479889;31;20136;-61
2022/05/30 10:29:33;;;;;;;3.13;0.30;;;20.00;55.80;;;;;;4482475;31;20163;-60
2022/05/30 10:32:11;;;;;;;3.08;0.32;;;20.20;55.40;;;;;;4458396;31;20168;-60
2022/05/30 10:35:07;;;;;;;2.40;0.40;;;20.30;55.10;;;;;;4482064;32;20144;-60
2022/05/30 10:37:59;;;;;;;2.53;0.30;;;20.50;54.90;;;;;;4480714;31;20121;-60
2022/05/30 10:41:02;;;;;;;1.88;0.45;;;20.50;54.50;;;;;;4482661;31;20148;-60
2022/05/30 10:43:59;;;;;;;3.58;0.40;;;20.60;54.40;;;;;;4464828;31;20174;-60
2022/05/30 10:46:49;;;;;;;3.05;0.63;;;20.70;54.30;;;;;;4481012;31;20148;-60
2022/05/30 10:49:19;;;;;;;3.30;0.32;;;20.70;54.20;;;;;;4480786;31;20321;-60
2022/05/30 10:51:58;;;;;;;0.47;0.22;;;20.70;54.20;;;;;;4479552;31;20263;-61
2022/05/30 10:54:31;;;;;;;0.77;0.20;;;20.70;54.30;;;;;;4481394;31;20447;-60
2022/05/30 10:57:09;;;;;;;1.60;0.20;;;20.60;54.40;;;;;;4481991;31;20128;-61
2022/05/30 10:59:45;;;;;;;2.83;0.50;;;20.60;54.60;;;;;;4481679;31;20141;-61
2022/05/30 11:02:45;;;;;;;2.83;0.40;;;20.50;54.70;;;;;;4483144;31;20140;-61
2022/05/30 11:05:15;;;;;;;1.33;0.28;;;20.50;55.00;;;;;;4475817;31;20278;-61
2022/05/30 11:08:06;;;;;;;1.58;0.40;;;20.40;55.10;;;;;;4483513;31;20164;-61
2022/05/30 11:11:01;;;;;;;6.15;0.40;;;20.40;55.30;;;;;;4477061;31;20153;-61
2022/05/30 11:13:43;;;;;;;3.85;0.50;;;20.30;56.30;;;;;;4481023;31;20298;-61
2022/05/30 11:16:31;;;;;;;2.25;0.40;;;20.30;55.70;;;;;;4481913;31;20172;-62
2022/05/30 11:19:12;;;;;;;2.50;0.45;;;20.20;55.80;;;;;;4481804;31;20135;-61
2022/05/30 11:22:00;;;;;;;1.05;0.28;;;20.20;55.90;;;;;;4479629;31;20125;-61
2022/05/30 11:24:27;;;;;;;3.47;0.40;;;20.20;56.20;;;;;;4479215;31;20136;-61
2022/05/30 11:27:14;;;;;;;2.08;0.30;;;20.10;56.20;;;;;;4481739;31;20164;-61
2022/05/30 11:29:49;;;;;;;1.63;0.30;;;20.10;56.30;;;;;;4481221;31;20464;-61
2022/05/30 11:32:58;;;;;;;2.53;0.30;;;20.10;56.40;;;;;;4479365;31;20133;-60
2022/05/30 11:35:37;;;;;;;3.13;0.38;;;20.10;56.60;;;;;;4465491;31;20243;-60
2022/05/30 11:38:43;;;;;;;2.63;0.40;;;20.00;56.60;;;;;;4481377;31;20143;-60
2022/05/30 11:41:43;;;;;;;1.77;0.50;;;20.00;56.70;;;;;;4471026;31;20723;-60
2022/05/30 11:44:42;;;;;;;6.28;0.50;;;20.00;56.90;;;;;;4475445;32;20161;-61
2022/05/30 11:47:29;;;;;;;1.02;0.30;;;19.90;56.90;;;;;;4488008;31;20113;-60
2022/05/30 11:50:10;;;;;;;1.65;0.30;;;19.90;56.80;;;;;;4481645;31;20198;-60
2022/05/30 11:52:44;;;;;;;1.00;0.10;;;19.90;56.70;;;;;;4480449;31;20624;-60
2022/05/30 11:55:14;;;;;;;1.40;0.20;;;19.90;56.60;;;;;;4479744;31;20137;-60
2022/05/30 11:57:53;;;;;;;1.60;0.30;;;19.90;57.50;;;;;;4482475;31;20274;-60
2022/05/30 12:00:43;;;;;;;0.88;0.20;;;19.90;56.50;;;;;;4480858;31;20145;-60
2022/05/30 12:03:31;;;;;;;1.45;0.40;;;19.90;56.50;;;;;;4473376;32;20147;-60
2022/05/30 12:06:18;;;;;;;1.08;0.20;;;19.90;56.50;;;;;;4481803;31;20291;-60
2022/05/30 12:08:53;;;;;;;1.35;0.20;;;19.80;56.50;;;;;;4480857;32;20143;-60
2022/05/30 12:11:49;;;;;;;1.52;0.30;;;19.80;56.50;;;;;;4480434;32;20140;-60
2022/05/30 12:14:43;;;;;;;1.30;0.50;;;19.80;56.50;;;;;;4481577;31;20129;-60
2022/05/30 12:17:15;;;;;;;1.65;0.40;;;19.80;56.40;;;;;;4480694;32;20125;-60
2022/05/30 12:25:57;;;;;;;0.82;0.20;;;19.80;56.50;;;;;;4431586;32;20210;-60
2022/05/30 12:28:29;;;;;;;1.77;0.30;;;19.80;56.40;;;;;;4472868;31;20158;-60
2022/05/30 12:31:42;;;;;;;1.13;0.30;;;19.70;56.30;;;;;;4480869;31;20212;-60
2022/05/30 12:34:09;;;;;;;1.80;0.38;;;19.70;56.00;;;;;;4478072;31;20124;-61
2022/05/30 12:36:40;;;;;;;1.02;0.28;;;19.70;56.20;;;;;;4481377;31;20159;-60
2022/05/30 12:39:33;;;;;;;4.85;0.40;;;19.70;56.10;;;;;;4480091;31;20226;-60
2022/05/30 12:42:00;;;;;;;3.17;0.52;;;19.70;56.00;;;;;;4480487;31;20662;-60
2022/05/30 12:44:49;;;;;;;2.50;0.38;;;19.70;56.20;;;;;;4482418;31;20137;-60
2022/05/30 12:47:24;;;;;;;1.38;0.20;;;19.70;56.10;;;;;;4477944;31;20566;-60
2022/05/30 12:49:50;;;;;;;1.95;0.35;;;19.70;56.20;;;;;;4482797;31;20144;-60
2022/05/30 12:52:19;;;;;;;4.43;0.45;;;19.60;56.20;;;;;;4480049;31;20226;-60
2022/05/30 12:54:57;;;;;;;4.15;0.40;;;19.60;56.20;;;;;;4478378;31;20263;-60
2022/05/30 12:57:36;;;;;;;0.98;0.20;;;19.70;56.20;;;;;;4481096;32;20462;-60
2022/05/30 13:00:36;;;;;;;4.05;0.40;;;19.70;56.10;;;;;;4479962;32;20129;-60
2022/05/30 13:03:24;;;;;;;1.98;0.30;;;19.60;55.90;;;;;;4472231;31;20211;-61
2022/05/30 13:06:11;;;;;;;2.80;0.40;;;19.60;56.00;;;;;;4480137;31;20145;-61
2022/05/30 13:08:58;;;;;;;1.75;0.30;;;19.70;56.00;;;;;;4480122;31;20125;-60
2022/05/30 13:11:32;;;;;;;1.20;0.30;;;19.70;55.90;;;;;;4480012;31;20230;-61
2022/05/30 13:14:20;;;;;;;1.88;0.20;;;19.60;55.90;;;;;;4480400;31;20185;-61
2022/05/30 13:16:47;;;;;;;2.70;0.30;;;19.60;55.80;;;;;;4478799;32;20125;-61
2022/05/30 13:19:16;;;;;;;3.17;0.50;;;19.60;55.90;;;;;;4481055;31;20129;-60
2022/05/30 13:21:48;;;;;;;1.17;0.40;;;19.60;55.90;;;;;;4479502;31;20283;-61
2022/05/30 13:24:37;;;;;;;0.45;0.22;;;19.60;55.90;;;;;;4480345;31;20148;-61
2022/05/30 13:27:04;;;;;;;1.67;0.30;;;19.60;55.90;;;;;;4482531;31;20160;-61
2022/05/30 13:29:32;;;;;;;3.67;0.47;;;19.60;55.90;;;;;;4479826;31;20145;-61
2022/05/30 13:31:59;;;;;;;3.38;0.60;;;19.70;56.10;;;;;;4479682;31;20143;-60
2022/05/30 13:34:28;;;;;;;2.95;0.40;;;19.70;55.60;;;;;;4479376;32;20142;-61